createdAt,value
2017-10-31T00:00:18.822Z,1017.42
2017-10-31T00:00:59.439Z,1017.5
2017-10-31T00:01:40.052Z,1017.44
2017-10-31T00:02:20.653Z,1017.43
2017-10-31T00:03:01.292Z,1017.46
2017-10-31T00:03:41.874Z,1017.46
2017-10-31T00:04:22.505Z,1017.41
2017-10-31T00:05:03.182Z,1017.41
2017-10-31T00:05:43.796Z,1017.42
2017-10-31T00:06:24.421Z,1017.45
2017-10-31T00:07:05.019Z,1017.4
2017-10-31T00:07:45.641Z,1017.42
2017-10-31T00:08:26.232Z,1017.36
2017-10-31T00:09:06.844Z,1017.35
2017-10-31T00:09:47.457Z,1017.35
2017-10-31T00:10:28.096Z,1017.35
2017-10-31T00:11:08.723Z,1017.27
2017-10-31T00:11:49.348Z,1017.3
2017-10-31T00:12:29.949Z,1017.29
2017-10-31T00:13:10.609Z,1017.28
2017-10-31T00:13:51.358Z,1017.27
2017-10-31T00:14:31.911Z,1017.32
2017-10-31T00:15:12.513Z,1017.26
2017-10-31T00:15:53.128Z,1017.28
2017-10-31T00:16:33.714Z,1017.32
2017-10-31T00:17:14.430Z,1017.3
2017-10-31T00:17:55.043Z,1017.29
2017-10-31T00:18:35.653Z,1017.24
2017-10-31T00:19:16.308Z,1017.27
2017-10-31T00:19:56.999Z,1017.3
2017-10-31T00:20:37.574Z,1017.29
2017-10-31T00:21:18.180Z,1017.29
2017-10-31T00:21:58.888Z,1017.31
2017-10-31T00:22:39.515Z,1017.34
2017-10-31T00:23:20.104Z,1017.33
2017-10-31T00:24:00.771Z,1017.31
2017-10-31T00:24:41.419Z,1017.31
2017-10-31T00:25:22.046Z,1017.34
2017-10-31T00:26:02.750Z,1017.31
2017-10-31T00:26:43.278Z,1017.32
2017-10-31T00:27:23.922Z,1017.3
2017-10-31T00:28:04.548Z,1017.32
2017-10-31T00:28:45.196Z,1017.31
2017-10-31T00:29:25.794Z,1017.3
2017-10-31T00:30:06.519Z,1017.31
2017-10-31T00:30:47.133Z,1017.26
2017-10-31T00:31:27.748Z,1017.27
2017-10-31T00:32:08.403Z,1017.25
2017-10-31T00:32:49.046Z,1017.22
2017-10-31T00:33:29.701Z,1017.27
2017-10-31T00:34:10.320Z,1017.18
2017-10-31T00:34:50.934Z,1017.23
2017-10-31T00:35:31.655Z,1017.22
2017-10-31T00:36:12.303Z,1017.21
2017-10-31T00:36:52.976Z,1017.19
2017-10-31T00:37:33.607Z,1017.21
2017-10-31T00:38:14.264Z,1017.19
2017-10-31T00:38:54.871Z,1017.22
2017-10-31T00:39:35.554Z,1017.2
2017-10-31T00:40:16.183Z,1017.23
2017-10-31T00:40:56.835Z,1017.2
2017-10-31T00:41:37.439Z,1017.23
2017-10-31T00:42:18.074Z,1017.24
2017-10-31T00:42:58.728Z,1017.21
2017-10-31T00:43:39.323Z,1017.21
2017-10-31T00:44:19.942Z,1017.24
2017-10-31T00:45:00.588Z,1017.21
2017-10-31T00:45:41.218Z,1017.19
2017-10-31T00:46:21.936Z,1017.25
2017-10-31T00:47:02.558Z,1017.18
2017-10-31T00:47:43.204Z,1017.23
2017-10-31T00:48:23.870Z,1017.24
2017-10-31T00:49:04.531Z,1017.23
2017-10-31T00:49:45.148Z,1017.2
2017-10-31T00:50:25.760Z,1017.21
2017-10-31T00:51:06.397Z,1017.22
2017-10-31T00:51:47.042Z,1017.22
2017-10-31T00:52:27.666Z,1017.26
2017-10-31T00:53:08.355Z,1017.24
2017-10-31T00:53:49.015Z,1017.25
2017-10-31T00:54:29.653Z,1017.18
2017-10-31T00:55:10.529Z,1017.28
2017-10-31T00:55:51.175Z,1017.22
2017-10-31T00:56:31.808Z,1017.2
2017-10-31T00:57:12.397Z,1017.2
2017-10-31T00:57:53.067Z,1017.2
2017-10-31T00:58:33.775Z,1017.2
2017-10-31T00:59:14.321Z,1017.23
2017-10-31T00:59:55.030Z,1017.22
2017-10-31T01:00:35.556Z,1017.21
2017-10-31T01:01:16.212Z,1017.24
2017-10-31T01:01:56.842Z,1017.18
2017-10-31T01:02:37.464Z,1017.24
2017-10-31T01:03:18.055Z,1017.26
2017-10-31T01:03:58.641Z,1017.24
2017-10-31T01:04:39.258Z,1017.23
2017-10-31T01:05:19.880Z,1017.22
2017-10-31T01:06:00.484Z,1017.22
2017-10-31T01:06:41.094Z,1017.23
2017-10-31T01:07:21.727Z,1017.22
2017-10-31T01:08:02.778Z,1017.23
2017-10-31T01:08:43.054Z,1017.2
2017-10-31T01:09:23.686Z,1017.19
2017-10-31T01:10:04.292Z,1017.19
2017-10-31T01:10:44.914Z,1017.21
2017-10-31T01:11:25.529Z,1017.2
2017-10-31T01:12:06.131Z,1017.16
2017-10-31T01:12:46.787Z,1017.18
2017-10-31T01:13:27.410Z,1017.2
2017-10-31T01:14:08.080Z,1017.23
2017-10-31T01:14:48.705Z,1017.24
2017-10-31T01:15:29.310Z,1017.19
2017-10-31T01:16:09.920Z,1017.19
2017-10-31T01:16:50.514Z,1017.19
2017-10-31T01:17:31.104Z,1017.25
2017-10-31T01:18:11.670Z,1017.23
2017-10-31T01:18:52.250Z,1017.19
2017-10-31T01:19:32.893Z,1017.22
2017-10-31T01:20:13.495Z,1017.24
2017-10-31T01:20:54.086Z,1017.18
2017-10-31T01:21:34.653Z,1017.25
2017-10-31T01:22:15.235Z,1017.28
2017-10-31T01:22:55.798Z,1017.26
2017-10-31T01:23:36.374Z,1017.27
2017-10-31T01:24:16.964Z,1017.27
2017-10-31T01:24:57.547Z,1017.24
2017-10-31T01:25:38.133Z,1017.27
2017-10-31T01:26:18.704Z,1017.29
2017-10-31T01:26:59.325Z,1017.25
2017-10-31T01:27:39.964Z,1017.26
2017-10-31T01:28:20.522Z,1017.29
2017-10-31T01:29:01.117Z,1017.33
2017-10-31T01:29:41.686Z,1017.32
2017-10-31T01:30:22.303Z,1017.34
2017-10-31T01:31:02.891Z,1017.33
2017-10-31T01:31:43.478Z,1017.32
2017-10-31T01:32:24.074Z,1017.31
2017-10-31T01:33:04.679Z,1017.3
2017-10-31T01:33:45.255Z,1017.29
2017-10-31T01:34:25.865Z,1017.27
2017-10-31T01:35:06.470Z,1017.26
2017-10-31T01:35:47.057Z,1017.27
2017-10-31T01:36:27.627Z,1017.27
2017-10-31T01:37:08.220Z,1017.27
2017-10-31T01:37:48.798Z,1017.24
2017-10-31T01:38:29.422Z,1017.21
2017-10-31T01:39:10.038Z,1017.22
2017-10-31T01:39:50.637Z,1017.25
2017-10-31T01:40:31.215Z,1017.24
2017-10-31T01:41:11.800Z,1017.2
2017-10-31T01:41:52.375Z,1017.23
2017-10-31T01:42:32.962Z,1017.2
2017-10-31T01:43:13.559Z,1017.17
2017-10-31T01:43:54.129Z,1017.22
2017-10-31T01:44:34.711Z,1017.23
2017-10-31T01:45:15.301Z,1017.22
2017-10-31T01:45:55.887Z,1017.2
2017-10-31T01:46:36.516Z,1017.19
2017-10-31T01:47:17.103Z,1017.18
2017-10-31T01:47:57.689Z,1017.18
2017-10-31T01:48:38.270Z,1017.19
2017-10-31T01:49:18.860Z,1017.2
2017-10-31T01:49:59.445Z,1017.14
2017-10-31T01:50:40.071Z,1017.19
2017-10-31T01:51:20.664Z,1017.2
2017-10-31T01:52:01.255Z,1017.17
2017-10-31T01:52:41.805Z,1017.17
2017-10-31T01:53:22.401Z,1017.23
2017-10-31T01:54:03.022Z,1017.16
2017-10-31T01:54:43.621Z,1017.2
2017-10-31T01:55:24.210Z,1017.21
2017-10-31T01:56:04.787Z,1017.21
2017-10-31T01:56:45.365Z,1017.22
2017-10-31T01:57:25.962Z,1017.24
2017-10-31T01:58:06.538Z,1017.21
2017-10-31T01:58:47.134Z,1017.22
2017-10-31T01:59:27.704Z,1017.18
2017-10-31T02:00:08.279Z,1017.22
2017-10-31T02:00:48.838Z,1017.21
2017-10-31T02:01:29.439Z,1017.21
2017-10-31T02:02:10.035Z,1017.24
2017-10-31T02:02:50.640Z,1017.23
2017-10-31T02:03:31.240Z,1017.23
2017-10-31T02:04:11.826Z,1017.23
2017-10-31T02:04:52.418Z,1017.21
2017-10-31T02:05:33.011Z,1017.26
2017-10-31T02:06:13.610Z,1017.26
2017-10-31T02:06:54.196Z,1017.28
2017-10-31T02:07:34.776Z,1017.22
2017-10-31T02:08:15.353Z,1017.25
2017-10-31T02:08:55.941Z,1017.27
2017-10-31T02:09:36.539Z,1017.24
2017-10-31T02:10:17.128Z,1017.22
2017-10-31T02:10:57.704Z,1017.25
2017-10-31T02:11:38.306Z,1017.26
2017-10-31T02:12:18.886Z,1017.21
2017-10-31T02:12:59.468Z,1017.17
2017-10-31T02:13:40.126Z,1017.17
2017-10-31T02:14:20.719Z,1017.19
2017-10-31T02:15:01.307Z,1017.22
2017-10-31T02:15:41.925Z,1017.18
2017-10-31T02:16:22.528Z,1017.19
2017-10-31T02:17:03.097Z,1017.17
2017-10-31T02:17:43.688Z,1017.14
2017-10-31T02:18:24.263Z,1017.17
2017-10-31T02:19:04.857Z,1017.14
2017-10-31T02:19:45.438Z,1017.13
2017-10-31T02:20:26.013Z,1017.16
2017-10-31T02:21:06.591Z,1017.14
2017-10-31T02:21:47.249Z,1017.12
2017-10-31T02:22:27.793Z,1017.12
2017-10-31T02:23:08.369Z,1017.14
2017-10-31T02:23:48.968Z,1017.14
2017-10-31T02:24:29.537Z,1017.15
2017-10-31T02:25:10.135Z,1017.12
2017-10-31T02:25:50.710Z,1017.12
2017-10-31T02:26:31.290Z,1017.1
2017-10-31T02:27:11.863Z,1017.11
2017-10-31T02:27:52.474Z,1017.11
2017-10-31T02:28:33.065Z,1017.1
2017-10-31T02:29:13.643Z,1017.09
2017-10-31T02:29:54.260Z,1017.13
2017-10-31T02:30:34.846Z,1017.15
2017-10-31T02:31:15.431Z,1017.14
2017-10-31T02:31:56.022Z,1017.14
2017-10-31T02:32:36.647Z,1017.12
2017-10-31T02:33:17.238Z,1017.12
2017-10-31T02:33:57.816Z,1017.08
2017-10-31T02:34:38.404Z,1017.12
2017-10-31T02:35:19.027Z,1017.16
2017-10-31T02:35:59.604Z,1017.13
2017-10-31T02:36:40.191Z,1017.1
2017-10-31T02:37:20.807Z,1017.1
2017-10-31T02:38:01.377Z,1017.16
2017-10-31T02:38:41.955Z,1017.09
2017-10-31T02:39:22.567Z,1017.13
2017-10-31T02:40:03.186Z,1017.16
2017-10-31T02:40:43.770Z,1017.12
2017-10-31T02:41:24.402Z,1017.1
2017-10-31T02:42:04.987Z,1017.14
2017-10-31T02:42:45.574Z,1017.2
2017-10-31T02:43:26.150Z,1017.14
2017-10-31T02:44:06.726Z,1017.17
2017-10-31T02:44:47.330Z,1017.13
2017-10-31T02:45:27.929Z,1017.15
2017-10-31T02:46:08.527Z,1017.14
2017-10-31T02:46:49.108Z,1017.15
2017-10-31T02:47:29.704Z,1017.12
2017-10-31T02:48:10.284Z,1017.11
2017-10-31T02:48:50.904Z,1017.14
2017-10-31T02:49:31.488Z,1017.13
2017-10-31T02:50:12.090Z,1017.08
2017-10-31T02:50:52.653Z,1017.11
2017-10-31T02:51:33.288Z,1017.08
2017-10-31T02:52:13.887Z,1017.12
2017-10-31T02:52:54.549Z,1017.12
2017-10-31T02:53:35.150Z,1017.09
2017-10-31T02:54:15.793Z,1017.13
2017-10-31T02:54:56.373Z,1017.1
2017-10-31T02:55:36.962Z,1017.1
2017-10-31T02:56:17.555Z,1017.11
2017-10-31T02:56:58.149Z,1017.09
2017-10-31T02:57:38.716Z,1017.11
2017-10-31T02:58:19.376Z,1017.11
2017-10-31T02:58:59.962Z,1017.06
2017-10-31T02:59:40.538Z,1017.12
2017-10-31T03:00:21.160Z,1017.1
2017-10-31T03:01:01.738Z,1017.1
2017-10-31T03:01:42.299Z,1017.08
2017-10-31T03:02:22.878Z,1017.08
2017-10-31T03:03:03.500Z,1017.09
2017-10-31T03:03:44.122Z,1017.08
2017-10-31T03:04:24.708Z,1017.06
2017-10-31T03:05:05.300Z,1017.1
2017-10-31T03:05:45.895Z,1017.14
2017-10-31T03:06:26.484Z,1017.07
2017-10-31T03:07:07.047Z,1017.06
2017-10-31T03:07:47.644Z,1017.07
2017-10-31T03:08:28.236Z,1017.09
2017-10-31T03:09:08.800Z,1017.1
2017-10-31T03:09:49.427Z,1017.09
2017-10-31T03:10:30.023Z,1017.06
2017-10-31T03:11:10.580Z,1017.08
2017-10-31T03:11:51.174Z,1017.08
2017-10-31T03:12:31.756Z,1017.08
2017-10-31T03:13:12.336Z,1017.06
2017-10-31T03:13:52.919Z,1017.03
2017-10-31T03:14:33.507Z,1017.07
2017-10-31T03:15:14.089Z,1017.11
2017-10-31T03:15:54.653Z,1017.08
2017-10-31T03:16:35.232Z,1017.06
2017-10-31T03:17:15.826Z,1017.11
2017-10-31T03:17:56.404Z,1017.08
2017-10-31T03:18:36.996Z,1017.08
2017-10-31T03:19:17.581Z,1017.09
2017-10-31T03:19:58.180Z,1017.12
2017-10-31T03:20:38.752Z,1017.12
2017-10-31T03:21:19.355Z,1017.1
2017-10-31T03:21:59.937Z,1017.11
2017-10-31T03:22:40.509Z,1017.15
2017-10-31T03:23:21.077Z,1017.14
2017-10-31T03:24:01.671Z,1017.16
2017-10-31T03:24:42.275Z,1017.19
2017-10-31T03:25:22.874Z,1017.19
2017-10-31T03:26:03.471Z,1017.15
2017-10-31T03:26:44.038Z,1017.19
2017-10-31T03:27:24.617Z,1017.19
2017-10-31T03:28:05.193Z,1017.2
2017-10-31T03:28:45.767Z,1017.21
2017-10-31T03:29:26.360Z,1017.18
2017-10-31T03:30:06.941Z,1017.19
2017-10-31T03:30:47.520Z,1017.18
2017-10-31T03:31:28.092Z,1017.23
2017-10-31T03:32:08.708Z,1017.23
2017-10-31T03:32:49.292Z,1017.23
2017-10-31T03:33:29.887Z,1017.19
2017-10-31T03:34:10.466Z,1017.19
2017-10-31T03:34:51.040Z,1017.19
2017-10-31T03:35:31.629Z,1017.2
2017-10-31T03:36:12.193Z,1017.16
2017-10-31T03:36:52.783Z,1017.21
2017-10-31T03:37:33.359Z,1017.21
2017-10-31T03:38:13.947Z,1017.16
2017-10-31T03:38:54.590Z,1017.18
2017-10-31T03:39:35.252Z,1017.14
2017-10-31T03:40:15.823Z,1017.17
2017-10-31T03:40:56.409Z,1017.19
2017-10-31T03:41:37.013Z,1017.17
2017-10-31T03:42:17.611Z,1017.18
2017-10-31T03:42:58.187Z,1017.16
2017-10-31T03:43:38.787Z,1017.18
2017-10-31T03:44:19.450Z,1017.16
2017-10-31T03:45:00.039Z,1017.18
2017-10-31T03:45:40.645Z,1017.19
2017-10-31T03:46:21.205Z,1017.13
2017-10-31T03:47:01.786Z,1017.16
2017-10-31T03:47:42.380Z,1017.13
2017-10-31T03:48:22.954Z,1017.14
2017-10-31T03:49:03.545Z,1017.16
2017-10-31T03:49:44.128Z,1017.12
2017-10-31T03:50:24.697Z,1017.12
2017-10-31T03:51:05.298Z,1017.14
2017-10-31T03:51:45.899Z,1017.16
2017-10-31T03:52:26.485Z,1017.12
2017-10-31T03:53:07.055Z,1017.09
2017-10-31T03:53:47.628Z,1017.14
2017-10-31T03:54:28.204Z,1017.14
2017-10-31T03:55:08.776Z,1017.14
2017-10-31T03:55:49.353Z,1017.16
2017-10-31T03:56:29.927Z,1017.13
2017-10-31T03:57:10.497Z,1017.1
2017-10-31T03:57:51.078Z,1017.14
2017-10-31T03:58:31.642Z,1017.12
2017-10-31T03:59:12.234Z,1017.13
2017-10-31T03:59:52.827Z,1017.15
2017-10-31T04:00:33.402Z,1017.13
2017-10-31T04:01:14.007Z,1017.11
2017-10-31T04:01:54.602Z,1017.11
2017-10-31T04:02:35.187Z,1017.1
2017-10-31T04:03:15.774Z,1017.14
2017-10-31T04:03:56.388Z,1017.07
2017-10-31T04:04:36.954Z,1017.11
2017-10-31T04:05:17.542Z,1017.09
2017-10-31T04:05:58.114Z,1017.08
2017-10-31T04:06:38.699Z,1017.11
2017-10-31T04:07:19.282Z,1017.1
2017-10-31T04:07:59.873Z,1017.08
2017-10-31T04:08:40.465Z,1017.14
2017-10-31T04:09:21.039Z,1017.05
2017-10-31T04:10:01.653Z,1017.06
2017-10-31T04:10:42.216Z,1017.04
2017-10-31T04:11:22.790Z,1017.06
2017-10-31T04:12:03.398Z,1017.04
2017-10-31T04:12:43.974Z,1017.03
2017-10-31T04:13:24.601Z,1017.05
2017-10-31T04:14:05.175Z,1017.03
2017-10-31T04:14:45.739Z,1017
2017-10-31T04:15:26.342Z,1017.09
2017-10-31T04:16:06.906Z,1017.07
2017-10-31T04:16:47.491Z,1017.03
2017-10-31T04:17:28.060Z,1017.05
2017-10-31T04:18:08.648Z,1017.06
2017-10-31T04:18:49.246Z,1017.06
2017-10-31T04:19:29.801Z,1017.02
2017-10-31T04:20:10.457Z,1017.05
2017-10-31T04:20:51.046Z,1017.06
2017-10-31T04:21:31.612Z,1017.01
2017-10-31T04:22:12.211Z,1017.06
2017-10-31T04:22:52.805Z,1017.04
2017-10-31T04:23:33.391Z,1017.01
2017-10-31T04:24:13.994Z,1017.08
2017-10-31T04:24:54.590Z,1017.05
2017-10-31T04:25:35.241Z,1017.07
2017-10-31T04:26:15.816Z,1017.07
2017-10-31T04:26:56.414Z,1017.07
2017-10-31T04:27:36.995Z,1017.05
2017-10-31T04:28:17.577Z,1017.07
2017-10-31T04:28:58.188Z,1017.11
2017-10-31T04:29:38.781Z,1017.06
2017-10-31T04:30:19.372Z,1017.11
2017-10-31T04:30:59.955Z,1017.11
2017-10-31T04:31:40.537Z,1017.07
2017-10-31T04:32:21.139Z,1017.08
2017-10-31T04:33:01.780Z,1017.09
2017-10-31T04:33:42.364Z,1017.12
2017-10-31T04:34:22.954Z,1017.1
2017-10-31T04:35:03.512Z,1017.13
2017-10-31T04:35:44.087Z,1017.08
2017-10-31T04:36:24.661Z,1017.05
2017-10-31T04:37:05.261Z,1017.05
2017-10-31T04:37:45.845Z,1017.1
2017-10-31T04:38:26.429Z,1017.09
2017-10-31T04:39:07.012Z,1017.09
2017-10-31T04:39:47.620Z,1017.05
2017-10-31T04:40:28.179Z,1017.12
2017-10-31T04:41:08.785Z,1017.08
2017-10-31T04:41:49.366Z,1017.07
2017-10-31T04:42:29.982Z,1017.07
2017-10-31T04:43:10.560Z,1017.05
2017-10-31T04:43:51.182Z,1017.09
2017-10-31T04:44:31.835Z,1017.04
2017-10-31T04:45:12.410Z,1017.05
2017-10-31T04:45:53.005Z,1017.12
2017-10-31T04:46:33.580Z,1017.07
2017-10-31T04:47:14.192Z,1017.07
2017-10-31T04:47:54.794Z,1017.1
2017-10-31T04:48:35.391Z,1017.07
2017-10-31T04:49:16.016Z,1017.11
2017-10-31T04:49:56.590Z,1017.12
2017-10-31T04:50:37.208Z,1017.13
2017-10-31T04:51:17.802Z,1017.12
2017-10-31T04:51:58.410Z,1017.12
2017-10-31T04:52:38.994Z,1017.13
2017-10-31T04:53:19.613Z,1017.1
2017-10-31T04:54:00.199Z,1017.15
2017-10-31T04:54:40.788Z,1017.08
2017-10-31T04:55:21.374Z,1017.12
2017-10-31T04:56:01.982Z,1017.09
2017-10-31T04:56:42.589Z,1017.09
2017-10-31T04:57:23.162Z,1017.14
2017-10-31T04:58:03.736Z,1017.11
2017-10-31T04:58:44.315Z,1017.1
2017-10-31T04:59:24.890Z,1017.12
2017-10-31T05:00:05.468Z,1017.11
2017-10-31T05:00:46.087Z,1017.12
2017-10-31T05:01:26.674Z,1017.1
2017-10-31T05:02:07.323Z,1017.1
2017-10-31T05:02:47.868Z,1017.09
2017-10-31T05:03:28.432Z,1017.1
2017-10-31T05:04:09.007Z,1017.11
2017-10-31T05:04:49.587Z,1017.09
2017-10-31T05:05:30.178Z,1017.1
2017-10-31T05:06:10.773Z,1017.1
2017-10-31T05:06:51.321Z,1017.13
2017-10-31T05:07:31.883Z,1017.11
2017-10-31T05:08:12.460Z,1017.1
2017-10-31T05:08:53.037Z,1017.09
2017-10-31T05:09:33.686Z,1017.1
2017-10-31T05:10:14.268Z,1017.13
2017-10-31T05:10:54.873Z,1017.12
2017-10-31T05:11:35.532Z,1017.11
2017-10-31T05:12:16.113Z,1017.12
2017-10-31T05:12:56.697Z,1017.06
2017-10-31T05:13:37.312Z,1017.1
2017-10-31T05:14:17.880Z,1017.12
2017-10-31T05:14:58.469Z,1017.08
2017-10-31T05:15:39.067Z,1017.09
2017-10-31T05:16:19.621Z,1017.07
2017-10-31T05:17:00.223Z,1017.07
2017-10-31T05:17:40.827Z,1017.06
2017-10-31T05:18:21.408Z,1017.03
2017-10-31T05:19:02.026Z,1017.03
2017-10-31T05:19:42.645Z,1017
2017-10-31T05:20:23.224Z,1017.01
2017-10-31T05:21:03.815Z,1017
2017-10-31T05:21:44.401Z,1016.98
2017-10-31T05:22:24.987Z,1016.97
2017-10-31T05:23:05.606Z,1016.94
2017-10-31T05:23:46.194Z,1016.95
2017-10-31T05:24:26.779Z,1016.89
2017-10-31T05:25:07.364Z,1016.91
2017-10-31T05:25:47.954Z,1016.91
2017-10-31T05:26:28.582Z,1016.98
2017-10-31T05:27:09.172Z,1016.92
2017-10-31T05:27:49.750Z,1016.91
2017-10-31T05:28:30.327Z,1016.92
2017-10-31T05:29:11.070Z,1016.96
2017-10-31T05:29:51.714Z,1016.97
2017-10-31T05:30:32.324Z,1016.98
2017-10-31T05:31:12.922Z,1016.96
2017-10-31T05:31:53.495Z,1016.98
2017-10-31T05:32:34.055Z,1016.99
2017-10-31T05:33:14.676Z,1016.98
2017-10-31T05:33:55.239Z,1016.99
2017-10-31T05:34:35.801Z,1017.02
2017-10-31T05:35:16.422Z,1017.04
2017-10-31T05:35:56.992Z,1017
2017-10-31T05:36:37.585Z,1017.03
2017-10-31T05:37:18.214Z,1017.02
2017-10-31T05:37:58.773Z,1016.99
2017-10-31T05:38:39.383Z,1017.03
2017-10-31T05:39:19.983Z,1017.06
2017-10-31T05:40:00.525Z,1017.07
2017-10-31T05:40:41.134Z,1017.1
2017-10-31T05:41:21.860Z,1017.06
2017-10-31T05:42:02.414Z,1017.13
2017-10-31T05:42:42.982Z,1017.08
2017-10-31T05:43:23.570Z,1017.11
2017-10-31T05:44:04.179Z,1017.11
2017-10-31T05:44:44.779Z,1017.09
2017-10-31T05:45:25.361Z,1017.14
2017-10-31T05:46:05.942Z,1017.12
2017-10-31T05:46:46.518Z,1017.14
2017-10-31T05:47:27.089Z,1017.15
2017-10-31T05:48:07.694Z,1017.14
2017-10-31T05:48:48.260Z,1017.13
2017-10-31T05:49:28.860Z,1017.14
2017-10-31T05:50:09.456Z,1017.13
2017-10-31T05:50:50.031Z,1017.15
2017-10-31T05:51:30.695Z,1017.2
2017-10-31T05:52:11.267Z,1017.19
2017-10-31T05:52:51.854Z,1017.2
2017-10-31T05:53:32.442Z,1017.26
2017-10-31T05:54:13.011Z,1017.23
2017-10-31T05:54:53.778Z,1017.26
2017-10-31T05:55:34.333Z,1017.22
2017-10-31T05:56:14.925Z,1017.21
2017-10-31T05:56:55.504Z,1017.23
2017-10-31T05:57:36.080Z,1017.25
2017-10-31T05:58:16.685Z,1017.24
2017-10-31T05:58:57.379Z,1017.24
2017-10-31T05:59:37.992Z,1017.27
2017-10-31T06:00:18.639Z,1017.28
2017-10-31T06:00:59.229Z,1017.28
2017-10-31T06:01:39.792Z,1017.28
2017-10-31T06:02:20.387Z,1017.29
2017-10-31T06:03:00.960Z,1017.26
2017-10-31T06:03:41.548Z,1017.3
2017-10-31T06:04:22.213Z,1017.28
2017-10-31T06:05:02.826Z,1017.28
2017-10-31T06:05:43.379Z,1017.29
2017-10-31T06:06:23.996Z,1017.28
2017-10-31T06:07:04.615Z,1017.32
2017-10-31T06:07:45.186Z,1017.34
2017-10-31T06:08:25.782Z,1017.31
2017-10-31T06:09:06.378Z,1017.37
2017-10-31T06:09:46.989Z,1017.34
2017-10-31T06:10:27.591Z,1017.39
2017-10-31T06:11:08.234Z,1017.4
2017-10-31T06:11:48.805Z,1017.4
2017-10-31T06:12:29.384Z,1017.4
2017-10-31T06:13:09.996Z,1017.43
2017-10-31T06:13:50.573Z,1017.43
2017-10-31T06:14:31.182Z,1017.4
2017-10-31T06:15:11.783Z,1017.4
2017-10-31T06:15:52.396Z,1017.43
2017-10-31T06:16:32.961Z,1017.45
2017-10-31T06:17:13.531Z,1017.5
2017-10-31T06:17:54.152Z,1017.46
2017-10-31T06:18:34.753Z,1017.48
2017-10-31T06:19:15.346Z,1017.51
2017-10-31T06:19:55.992Z,1017.5
2017-10-31T06:20:36.613Z,1017.52
2017-10-31T06:21:17.220Z,1017.51
2017-10-31T06:21:57.797Z,1017.49
2017-10-31T06:22:38.458Z,1017.53
2017-10-31T06:23:19.096Z,1017.48
2017-10-31T06:23:59.657Z,1017.52
2017-10-31T06:24:40.241Z,1017.52
2017-10-31T06:25:20.852Z,1017.55
2017-10-31T06:26:01.424Z,1017.52
2017-10-31T06:26:42.016Z,1017.55
2017-10-31T06:27:22.595Z,1017.59
2017-10-31T06:28:03.182Z,1017.52
2017-10-31T06:28:43.763Z,1017.61
2017-10-31T06:29:24.369Z,1017.56
2017-10-31T06:30:04.968Z,1017.57
2017-10-31T06:30:45.539Z,1017.62
2017-10-31T06:31:26.124Z,1017.63
2017-10-31T06:32:06.711Z,1017.62
2017-10-31T06:32:47.279Z,1017.62
2017-10-31T06:33:27.928Z,1017.65
2017-10-31T06:34:08.553Z,1017.67
2017-10-31T06:34:49.166Z,1017.68
2017-10-31T06:35:29.738Z,1017.68
2017-10-31T06:36:10.328Z,1017.67
2017-10-31T06:36:50.916Z,1017.71
2017-10-31T06:37:31.461Z,1017.7
2017-10-31T06:38:12.065Z,1017.7
2017-10-31T06:38:52.693Z,1017.71
2017-10-31T06:39:33.277Z,1017.78
2017-10-31T06:40:13.904Z,1017.73
2017-10-31T06:40:54.484Z,1017.76
2017-10-31T06:41:35.065Z,1017.75
2017-10-31T06:42:15.720Z,1017.78
2017-10-31T06:42:56.313Z,1017.74
2017-10-31T06:43:36.879Z,1017.74
2017-10-31T06:44:17.468Z,1017.77
2017-10-31T06:44:58.085Z,1017.79
2017-10-31T06:45:38.699Z,1017.8
2017-10-31T06:46:19.297Z,1017.8
2017-10-31T06:46:59.876Z,1017.79
2017-10-31T06:47:40.529Z,1017.78
2017-10-31T06:48:21.115Z,1017.81
2017-10-31T06:49:01.732Z,1017.78
2017-10-31T06:49:42.332Z,1017.79
2017-10-31T06:50:22.966Z,1017.77
2017-10-31T06:51:03.564Z,1017.77
2017-10-31T06:51:44.169Z,1017.8
2017-10-31T06:52:24.726Z,1017.78
2017-10-31T06:53:05.352Z,1017.8
2017-10-31T06:53:46.005Z,1017.82
2017-10-31T06:54:26.585Z,1017.77
2017-10-31T06:55:07.169Z,1017.81
2017-10-31T06:55:47.762Z,1017.8
2017-10-31T06:56:28.359Z,1017.8
2017-10-31T06:57:08.957Z,1017.77
2017-10-31T06:57:49.562Z,1017.78
2017-10-31T06:58:30.130Z,1017.75
2017-10-31T06:59:10.728Z,1017.73
2017-10-31T06:59:51.316Z,1017.78
2017-10-31T07:00:32.055Z,1017.73
2017-10-31T07:01:12.669Z,1017.75
2017-10-31T07:01:53.273Z,1017.72
2017-10-31T07:02:33.868Z,1017.74
2017-10-31T07:03:14.516Z,1017.77
2017-10-31T07:03:55.126Z,1017.79
2017-10-31T07:04:35.738Z,1017.8
2017-10-31T07:05:16.390Z,1017.77
2017-10-31T07:05:56.979Z,1017.76
2017-10-31T07:06:37.583Z,1017.77
2017-10-31T07:07:18.155Z,1017.8
2017-10-31T07:07:58.746Z,1017.8
2017-10-31T07:08:39.337Z,1017.82
2017-10-31T07:09:19.912Z,1017.78
2017-10-31T07:10:00.506Z,1017.78
2017-10-31T07:10:41.145Z,1017.78
2017-10-31T07:11:21.747Z,1017.77
2017-10-31T07:12:02.334Z,1017.8
2017-10-31T07:12:42.902Z,1017.79
2017-10-31T07:13:23.507Z,1017.81
2017-10-31T07:14:04.508Z,1017.78
2017-10-31T07:14:45.134Z,1017.82
2017-10-31T07:15:25.706Z,1017.8
2017-10-31T07:16:06.363Z,1017.82
2017-10-31T07:16:46.939Z,1017.83
2017-10-31T07:17:28.409Z,1017.84
2017-10-31T07:18:09.007Z,1017.85
2017-10-31T07:18:49.598Z,1017.85
2017-10-31T07:19:30.384Z,1017.91
2017-10-31T07:20:10.952Z,1017.9
2017-10-31T07:20:51.682Z,1017.93
2017-10-31T07:21:32.399Z,1017.91
2017-10-31T07:22:12.982Z,1017.96
2017-10-31T07:22:53.565Z,1017.92
2017-10-31T07:23:34.139Z,1017.92
2017-10-31T07:24:14.829Z,1017.93
2017-10-31T07:24:55.632Z,1017.91
2017-10-31T07:25:36.324Z,1017.95
2017-10-31T07:26:17.153Z,1017.95
2017-10-31T07:26:58.563Z,1017.95
2017-10-31T07:27:40.422Z,1017.94
2017-10-31T07:28:21.434Z,1017.95
2017-10-31T07:29:02.319Z,1017.97
2017-10-31T07:29:42.966Z,1017.95
2017-10-31T07:30:23.564Z,1017.97
2017-10-31T07:31:04.152Z,1017.98
2017-10-31T07:31:44.792Z,1017.95
2017-10-31T07:32:25.565Z,1017.98
2017-10-31T07:33:06.185Z,1018.01
2017-10-31T07:33:46.762Z,1018.02
2017-10-31T07:34:27.717Z,1018.01
2017-10-31T07:35:08.288Z,1018
2017-10-31T07:35:49.005Z,1018
2017-10-31T07:36:29.699Z,1018.04
2017-10-31T07:37:10.353Z,1018.01
2017-10-31T07:37:51.096Z,1018.04
2017-10-31T07:38:32.465Z,1018.04
2017-10-31T07:39:13.145Z,1018.05
2017-10-31T07:39:53.926Z,1018.08
2017-10-31T07:40:34.459Z,1018.08
2017-10-31T07:41:15.379Z,1018.07
2017-10-31T07:41:56.014Z,1018.04
2017-10-31T07:42:36.652Z,1018.07
2017-10-31T07:43:17.322Z,1018.04
2017-10-31T07:43:58.160Z,1018.05
2017-10-31T07:44:38.779Z,1018.04
2017-10-31T07:45:19.411Z,1018.03
2017-10-31T07:46:00.136Z,1018.04
2017-10-31T07:46:41.199Z,1018.04
2017-10-31T07:47:21.844Z,1018.04
2017-10-31T07:48:02.581Z,1018
2017-10-31T07:48:43.378Z,1018.03
2017-10-31T07:49:24.013Z,1018.02
2017-10-31T07:50:04.591Z,1018.03
2017-10-31T07:50:45.664Z,1018.08
2017-10-31T07:51:27.192Z,1018.01
2017-10-31T07:52:07.794Z,1018.01
2017-10-31T07:52:48.371Z,1018.01
2017-10-31T07:53:29.008Z,1018.02
2017-10-31T07:54:09.622Z,1018.06
2017-10-31T07:54:50.345Z,1018.08
2017-10-31T07:55:31.022Z,1018.02
2017-10-31T07:56:11.613Z,1018.01
2017-10-31T07:56:52.232Z,1018.02
2017-10-31T07:57:32.885Z,1017.99
2017-10-31T07:58:13.471Z,1018.02
2017-10-31T07:58:54.069Z,1018.05
2017-10-31T07:59:34.685Z,1018.08
2017-10-31T08:00:15.357Z,1018.05
2017-10-31T08:00:55.924Z,1018.04
2017-10-31T08:01:36.612Z,1018
2017-10-31T08:02:17.364Z,1018.04
2017-10-31T08:02:58.106Z,1018.02
2017-10-31T08:03:38.703Z,1018.04
2017-10-31T08:04:19.395Z,1018.01
2017-10-31T08:05:00.119Z,1018.01
2017-10-31T08:05:40.693Z,1018.03
2017-10-31T08:06:21.361Z,1018.01
2017-10-31T08:07:02.027Z,1018.07
2017-10-31T08:07:42.882Z,1018.06
2017-10-31T08:08:23.484Z,1018.05
2017-10-31T08:09:04.210Z,1018.08
2017-10-31T08:09:44.874Z,1018.05
2017-10-31T08:10:25.528Z,1018.13
2017-10-31T08:11:06.152Z,1018.19
2017-10-31T08:11:46.799Z,1018.18
2017-10-31T08:12:27.544Z,1018.17
2017-10-31T08:13:08.167Z,1018.2